sensor_id;sensor_type;location;lat;lon;timestamp;pressure;altitude;pressure_sealevel;temperature;humidity
81835;BME280;71272;52.166;4.498;2023-10-09T00:01:49;102111.34;;;14.29;100.00
81835;BME280;71272;52.166;4.498;2023-10-09T00:04:16;102113.38;;;14.32;100.00
81835;BME280;71272;52.166;4.498;2023-10-09T00:06:42;102119.06;;;14.46;100.00
81835;BME280;71272;52.166;4.498;2023-10-09T00:09:08;102117.50;;;14.56;100.00
81835;BME280;71272;52.166;4.498;2023-10-09T00:11:55;102123.16;;;14.70;100.00
81835;BME280;71272;52.166;4.498;2023-10-09T00:14:26;102109.06;;;14.74;100.00
81835;BME280;71272;52.166;4.498;2023-10-09T00:16:52;102116.34;;;14.89;100.00
81835;BME280;71272;52.166;4.498;2023-10-09T00:19:44;102110.31;;;14.87;100.00
81835;BME280;71272;52.166;4.498;2023-10-09T00:22:11;102106.28;;;14.95;100.00
81835;BME280;71272;52.166;4.498;2023-10-09T00:24:52;102107.06;;;15.03;100.00
81835;BME280;71272;52.166;4.498;2023-10-09T00:27:39;102113.94;;;15.13;100.00
81835;BME280;71272;52.166;4.498;2023-10-09T00:30:10;102111.50;;;15.22;100.00
81835;BME280;71272;52.166;4.498;2023-10-09T00:32:37;102118.75;;;15.30;100.00
81835;BME280;71272;52.166;4.498;2023-10-09T00:35:07;102115.53;;;15.35;100.00
81835;BME280;71272;52.166;4.498;2023-10-09T00:37:59;102115.91;;;15.48;100.00
81835;BME280;71272;52.166;4.498;2023-10-09T00:40:31;102122.75;;;15.65;100.00
81835;BME280;71272;52.166;4.498;2023-10-09T00:42:59;102121.94;;;15.79;100.00
81835;BME280;71272;52.166;4.498;2023-10-09T00:45:31;102111.41;;;15.93;100.00
81835;BME280;71272;52.166;4.498;2023-10-09T00:47:58;102107.31;;;16.05;100.00
81835;BME280;71272;52.166;4.498;2023-10-09T00:50:24;102095.13;;;16.12;100.00
81835;BME280;71272;52.166;4.498;2023-10-09T00:52:52;102090.69;;;16.18;100.00
81835;BME280;71272;52.166;4.498;2023-10-09T00:55:26;102107.16;;;16.37;100.00
81835;BME280;71272;52.166;4.498;2023-10-09T00:58:12;102099.03;;;16.39;100.00
81835;BME280;71272;52.166;4.498;2023-10-09T01:04:02;102087.28;;;16.45;100.00
81835;BME280;71272;52.166;4.498;2023-10-09T01:06:44;102075.94;;;16.48;100.00
81835;BME280;71272;52.166;4.498;2023-10-09T01:09:14;102077.53;;;16.49;100.00
81835;BME280;71272;52.166;4.498;2023-10-09T01:11:42;102062.63;;;16.41;100.00
81835;BME280;71272;52.166;4.498;2023-10-09T01:14:29;102070.66;;;16.50;100.00
81835;BME280;71272;52.166;4.498;2023-10-09T01:16:56;102056.56;;;16.43;100.00
81835;BME280;71272;52.166;4.498;2023-10-09T01:19:22;102051.63;;;16.54;100.00
81835;BME280;71272;52.166;4.498;2023-10-09T01:21:51;102031.00;;;16.50;100.00
81835;BME280;71272;52.166;4.498;2023-10-09T01:24:16;102045.56;;;16.52;100.00
81835;BME280;71272;52.166;4.498;2023-10-09T01:26:45;102031.16;;;16.32;100.00
81835;BME280;71272;52.166;4.498;2023-10-09T01:31:47;102043.34;;;16.22;100.00
81835;BME280;71272;52.166;4.498;2023-10-09T01:34:26;102060.66;;;16.31;100.00
81835;BME280;71272;52.166;4.498;2023-10-09T01:37:07;102044.97;;;16.19;100.00
81835;BME280;71272;52.166;4.498;2023-10-09T01:39:52;102040.56;;;16.11;100.00
81835;BME280;71272;52.166;4.498;2023-10-09T01:42:19;102045.78;;;16.16;100.00
81835;BME280;71272;52.166;4.498;2023-10-09T01:44:53;102053.06;;;16.21;100.00
81835;BME280;71272;52.166;4.498;2023-10-09T01:47:19;102061.88;;;16.30;100.00
81835;BME280;71272;52.166;4.498;2023-10-09T01:49:46;102044.13;;;16.26;100.00
81835;BME280;71272;52.166;4.498;2023-10-09T01:52:15;102045.75;;;16.24;100.00
81835;BME280;71272;52.166;4.498;2023-10-09T01:54:46;102030.44;;;16.14;100.00
81835;BME280;71272;52.166;4.498;2023-10-09T01:57:19;102039.28;;;16.27;100.00
81835;BME280;71272;52.166;4.498;2023-10-09T01:59:48;102034.44;;;16.20;100.00
81835;BME280;71272;52.166;4.498;2023-10-09T02:02:19;102023.88;;;16.28;100.00
81835;BME280;71272;52.166;4.498;2023-10-09T02:05:01;102019.81;;;16.32;100.00
81835;BME280;71272;52.166;4.498;2023-10-09T02:07:54;102006.47;;;16.33;100.00
81835;BME280;71272;52.166;4.498;2023-10-09T02:10:23;102000.41;;;16.31;100.00
81835;BME280;71272;52.166;4.498;2023-10-09T02:12:59;102002.03;;;16.28;100.00
81835;BME280;71272;52.166;4.498;2023-10-09T02:15:31;102009.69;;;16.31;100.00
81835;BME280;71272;52.166;4.498;2023-10-09T02:18:10;102021.41;;;16.33;100.00
81835;BME280;71272;52.166;4.498;2023-10-09T02:23:32;102013.00;;;16.23;100.00
81835;BME280;71272;52.166;4.498;2023-10-09T02:26:09;102031.22;;;16.22;100.00
81835;BME280;71272;52.166;4.498;2023-10-09T02:28:35;102012.63;;;16.17;100.00
81835;BME280;71272;52.166;4.498;2023-10-09T02:31:09;102025.47;;;16.32;100.00
81835;BME280;71272;52.166;4.498;2023-10-09T02:33:37;102013.31;;;16.35;100.00
81835;BME280;71272;52.166;4.498;2023-10-09T02:36:07;102022.09;;;16.52;100.00
81835;BME280;71272;52.166;4.498;2023-10-09T02:38:33;102019.66;;;16.54;100.00
81835;BME280;71272;52.166;4.498;2023-10-09T02:41:01;102014.00;;;16.54;100.00
81835;BME280;71272;52.166;4.498;2023-10-09T02:43:45;101993.47;;;16.42;100.00
81835;BME280;71272;52.166;4.498;2023-10-09T02:46:24;102001.09;;;16.49;100.00
81835;BME280;71272;52.166;4.498;2023-10-09T02:48:56;102002.72;;;16.47;100.00
81835;BME280;71272;52.166;4.498;2023-10-09T02:51:24;102008.72;;;16.56;100.00
81835;BME280;71272;52.166;4.498;2023-10-09T02:53:53;102000.53;;;16.69;100.00
81835;BME280;71272;52.166;4.498;2023-10-09T02:56:20;102004.16;;;16.73;100.00
81835;BME280;71272;52.166;4.498;2023-10-09T02:58:52;101981.59;;;16.58;100.00
81835;BME280;71272;52.166;4.498;2023-10-09T03:01:17;102005.84;;;16.63;100.00
81835;BME280;71272;52.166;4.498;2023-10-09T03:03:43;101991.63;;;16.67;100.00
81835;BME280;71272;52.166;4.498;2023-10-09T03:06:13;101990.38;;;16.78;100.00
81835;BME280;71272;52.166;4.498;2023-10-09T03:08:51;101978.53;;;16.87;100.00
81835;BME280;71272;52.166;4.498;2023-10-09T03:11:17;101967.28;;;16.76;100.00
81835;BME280;71272;52.166;4.498;2023-10-09T03:13:44;101984.59;;;16.89;100.00
81835;BME280;71272;52.166;4.498;2023-10-09T03:16:10;101991.38;;;16.99;100.00
81835;BME280;71272;52.166;4.498;2023-10-09T03:18:40;101988.16;;;16.97;100.00
81835;BME280;71272;52.166;4.498;2023-10-09T03:21:05;102004.69;;;17.02;100.00
81835;BME280;71272;52.166;4.498;2023-10-09T03:23:31;102024.16;;;17.00;100.00
81835;BME280;71272;52.166;4.498;2023-10-09T03:29:19;102043.75;;;16.80;100.00
81835;BME280;71272;52.166;4.498;2023-10-09T03:31:44;102042.44;;;16.95;100.00
81835;BME280;71272;52.166;4.498;2023-10-09T03:36:59;102021.75;;;16.98;100.00
81835;BME280;71272;52.166;4.498;2023-10-09T03:42:53;102017.47;;;16.79;100.00
81835;BME280;71272;52.166;4.498;2023-10-09T03:45:19;102017.84;;;16.81;100.00
81835;BME280;71272;52.166;4.498;2023-10-09T03:51:18;102013.88;;;16.68;100.00
81835;BME280;71272;52.166;4.498;2023-10-09T03:53:48;102009.06;;;16.65;100.00
81835;BME280;71272;52.166;4.498;2023-10-09T03:59:36;101994.09;;;16.64;100.00
81835;BME280;71272;52.166;4.498;2023-10-09T04:02:02;102017.91;;;16.78;100.00
81835;BME280;71272;52.166;4.498;2023-10-09T04:04:29;102005.78;;;16.70;100.00
81835;BME280;71272;52.166;4.498;2023-10-09T04:06:58;101998.47;;;16.73;100.00
81835;BME280;71272;52.166;4.498;2023-10-09T04:09:23;101999.63;;;16.82;100.00
81835;BME280;71272;52.166;4.498;2023-10-09T04:11:50;102001.16;;;16.94;100.00
81835;BME280;71272;52.166;4.498;2023-10-09T04:14:34;101972.72;;;17.01;100.00
81835;BME280;71272;52.166;4.498;2023-10-09T04:17:01;101984.84;;;17.05;100.00
81835;BME280;71272;52.166;4.498;2023-10-09T04:19:32;101985.72;;;16.99;100.00
81835;BME280;71272;52.166;4.498;2023-10-09T04:22:13;101991.88;;;16.90;100.00
81835;BME280;71272;52.166;4.498;2023-10-09T04:24:52;101993.94;;;16.86;100.00
81835;BME280;71272;52.166;4.498;2023-10-09T04:27:17;101993.09;;;16.89;100.00
81835;BME280;71272;52.166;4.498;2023-10-09T04:29:51;102001.59;;;16.89;100.00
81835;BME280;71272;52.166;4.498;2023-10-09T04:32:18;102009.28;;;16.89;100.00
81835;BME280;71272;52.166;4.498;2023-10-09T04:34:44;102011.28;;;16.92;100.00
81835;BME280;71272;52.166;4.498;2023-10-09T04:37:21;101999.13;;;16.95;100.00
81835;BME280;71272;52.166;4.498;2023-10-09T04:40:03;102009.63;;;16.98;100.00
81835;BME280;71272;52.166;4.498;2023-10-09T04:42:40;102013.69;;;16.93;100.00
81835;BME280;71272;52.166;4.498;2023-10-09T04:45:11;102014.50;;;16.94;100.00
81835;BME280;71272;52.166;4.498;2023-10-09T04:47:40;102016.13;;;16.95;100.00
81835;BME280;71272;52.166;4.498;2023-10-09T04:50:24;102011.59;;;17.01;100.00
81835;BME280;71272;52.166;4.498;2023-10-09T04:52:55;102029.84;;;16.96;100.00
81835;BME280;71272;52.166;4.498;2023-10-09T04:55:21;102018.22;;;16.87;100.00
81835;BME280;71272;52.166;4.498;2023-10-09T04:57:50;102028.75;;;16.86;100.00
81835;BME280;71272;52.166;4.498;2023-10-09T05:00:34;102043.75;;;16.83;100.00
81835;BME280;71272;52.166;4.498;2023-10-09T05:03:05;102038.88;;;16.84;100.00
81835;BME280;71272;52.166;4.498;2023-10-09T05:05:38;102042.13;;;16.82;100.00
81835;BME280;71272;52.166;4.498;2023-10-09T05:08:14;102027.56;;;16.80;100.00
81835;BME280;71272;52.166;4.498;2023-10-09T05:10:50;102034.81;;;16.85;100.00
81835;BME280;71272;52.166;4.498;2023-10-09T05:13:35;102041.34;;;16.78;100.00
81835;BME280;71272;52.166;4.498;2023-10-09T05:16:04;102052.25;;;16.76;100.00
81835;BME280;71272;52.166;4.498;2023-10-09T05:18:30;102070.50;;;16.75;100.00
81835;BME280;71272;52.166;4.498;2023-10-09T05:21:04;102073.31;;;16.75;100.00
81835;BME280;71272;52.166;4.498;2023-10-09T05:23:39;102066.03;;;16.81;100.00
81835;BME280;71272;52.166;4.498;2023-10-09T05:26:16;102046.59;;;16.83;100.00
81835;BME280;71272;52.166;4.498;2023-10-09T05:29:02;102038.44;;;16.85;100.00
81835;BME280;71272;52.166;4.498;2023-10-09T05:31:47;102032.03;;;16.81;100.00
81835;BME280;71272;52.166;4.498;2023-10-09T05:34:32;102015.03;;;16.81;100.00
81835;BME280;71272;52.166;4.498;2023-10-09T05:37:16;102023.09;;;16.83;100.00
81835;BME280;71272;52.166;4.498;2023-10-09T05:39:53;101998.88;;;16.78;100.00
81835;BME280;71272;52.166;4.498;2023-10-09T05:42:26;101987.44;;;16.85;100.00
81835;BME280;71272;52.166;4.498;2023-10-09T05:45:14;101988.63;;;16.92;100.00
81835;BME280;71272;52.166;4.498;2023-10-09T05:47:48;101981.72;;;16.93;100.00
81835;BME280;71272;52.166;4.498;2023-10-09T05:50:20;102008.06;;;16.90;100.00
81835;BME280;71272;52.166;4.498;2023-10-09T05:53:00;102000.84;;;16.81;100.00
81835;BME280;71272;52.166;4.498;2023-10-09T05:55:30;102001.63;;;16.85;100.00
81835;BME280;71272;52.166;4.498;2023-10-09T05:58:30;102003.94;;;16.98;100.00
81835;BME280;71272;52.166;4.498;2023-10-09T06:01:21;101991.03;;;16.93;100.00
81835;BME280;71272;52.166;4.498;2023-10-09T06:04:05;101955.31;;;17.03;100.00
81835;BME280;71272;52.166;4.498;2023-10-09T06:06:44;101970.28;;;17.03;100.00
81835;BME280;71272;52.166;4.498;2023-10-09T06:09:12;102053.22;;;17.07;100.00
81835;BME280;71272;52.166;4.498;2023-10-09T06:11:38;102024.97;;;16.97;100.00
81835;BME280;71272;52.166;4.498;2023-10-09T06:14:03;102036.81;;;16.92;100.00
81835;BME280;71272;52.166;4.498;2023-10-09T06:16:33;102025.13;;;16.82;100.00
81835;BME280;71272;52.166;4.498;2023-10-09T06:19:05;102031.63;;;16.76;100.00
81835;BME280;71272;52.166;4.498;2023-10-09T06:21:36;102055.88;;;16.80;100.00
81835;BME280;71272;52.166;4.498;2023-10-09T06:24:24;102047.84;;;16.72;100.00
81835;BME280;71272;52.166;4.498;2023-10-09T06:26:54;102054.69;;;16.74;100.00
81835;BME280;71272;52.166;4.498;2023-10-09T06:29:19;102055.09;;;16.83;100.00
81835;BME280;71272;52.166;4.498;2023-10-09T06:32:07;102046.94;;;16.85;100.00
81835;BME280;71272;52.166;4.498;2023-10-09T06:34:43;102063.53;;;16.87;100.00
81835;BME280;71272;52.166;4.498;2023-10-09T06:37:10;102064.34;;;16.88;100.00
81835;BME280;71272;52.166;4.498;2023-10-09T06:40:02;102067.53;;;16.93;100.00
81835;BME280;71272;52.166;4.498;2023-10-09T06:42:45;102064.66;;;16.97;100.00
81835;BME280;71272;52.166;4.498;2023-10-09T06:45:16;102064.66;;;17.00;100.00
81835;BME280;71272;52.166;4.498;2023-10-09T06:47:49;102052.44;;;17.07;100.00
81835;BME280;71272;52.166;4.498;2023-10-09T06:50:22;102034.28;;;17.01;100.00
81835;BME280;71272;52.166;4.498;2023-10-09T06:52:54;102038.59;;;17.16;100.00
81835;BME280;71272;52.166;4.498;2023-10-09T06:55:26;102046.22;;;17.23;100.00
81835;BME280;71272;52.166;4.498;2023-10-09T06:58:00;102024.72;;;17.25;100.00
81835;BME280;71272;52.166;4.498;2023-10-09T07:00:29;102003.53;;;17.37;100.00
81835;BME280;71272;52.166;4.498;2023-10-09T07:03:13;101986.38;;;17.48;100.00
81835;BME280;71272;52.166;4.498;2023-10-09T07:05:39;101970.09;;;17.56;100.00
81835;BME280;71272;52.166;4.498;2023-10-09T07:08:30;101977.78;;;17.55;100.00
81835;BME280;71272;52.166;4.498;2023-10-09T07:11:02;101975.38;;;17.53;100.00
81835;BME280;71272;52.166;4.498;2023-10-09T07:13:48;101995.88;;;17.68;100.00
81835;BME280;71272;52.166;4.498;2023-10-09T07:16:22;102001.78;;;17.81;100.00
81835;BME280;71272;52.166;4.498;2023-10-09T07:19:06;102019.41;;;18.00;100.00
81835;BME280;71272;52.166;4.498;2023-10-09T07:22:07;102032.16;;;18.15;100.00
81835;BME280;71272;52.166;4.498;2023-10-09T07:24:52;102017.03;;;18.25;100.00
81835;BME280;71272;52.166;4.498;2023-10-09T07:27:39;102013.41;;;18.21;100.00
81835;BME280;71272;52.166;4.498;2023-10-09T07:30:20;101995.09;;;18.26;100.00
81835;BME280;71272;52.166;4.498;2023-10-09T07:32:58;101995.47;;;18.28;100.00
81835;BME280;71272;52.166;4.498;2023-10-09T07:35:48;101990.53;;;18.32;100.00
81835;BME280;71272;52.166;4.498;2023-10-09T07:41:01;102022.63;;;18.56;100.00
81835;BME280;71272;52.166;4.498;2023-10-09T07:43:32;102016.72;;;18.70;100.00
81835;BME280;71272;52.166;4.498;2023-10-09T07:46:17;102035.22;;;18.82;100.00
81835;BME280;71272;52.166;4.498;2023-10-09T07:48:59;102046.97;;;18.84;100.00
81835;BME280;71272;52.166;4.498;2023-10-09T07:51:35;102049.41;;;18.82;100.00
81835;BME280;71272;52.166;4.498;2023-10-09T07:54:01;102049.78;;;18.84;100.00
81835;BME280;71272;52.166;4.498;2023-10-09T07:56:37;102048.03;;;18.94;100.00
81835;BME280;71272;52.166;4.498;2023-10-09T07:59:21;102055.22;;;18.98;100.00
81835;BME280;71272;52.166;4.498;2023-10-09T08:01:50;102068.69;;;19.18;100.00
81835;BME280;71272;52.166;4.498;2023-10-09T08:04:22;102071.31;;;19.32;100.00
81835;BME280;71272;52.166;4.498;2023-10-09T08:07:10;102068.09;;;19.50;100.00
81835;BME280;71272;52.166;4.498;2023-10-09T08:09:53;102072.09;;;19.76;100.00
81835;BME280;71272;52.166;4.498;2023-10-09T08:12:37;102076.03;;;19.82;100.00
81835;BME280;71272;52.166;4.498;2023-10-09T08:15:16;102085.78;;;20.41;100.00
81835;BME280;71272;52.166;4.498;2023-10-09T08:17:48;102081.06;;;20.87;100.00
81835;BME280;71272;52.166;4.498;2023-10-09T08:20:21;102095.41;;;21.62;100.00
81835;BME280;71272;52.166;4.498;2023-10-09T08:22:53;102098.06;;;22.66;100.00
81835;BME280;71272;52.166;4.498;2023-10-09T08:25:23;102106.34;;;24.15;100.00
81835;BME280;71272;52.166;4.498;2023-10-09T08:27:56;102119.78;;;25.95;100.00
81835;BME280;71272;52.166;4.498;2023-10-09T08:30:23;102116.81;;;26.32;100.00
81835;BME280;71272;52.166;4.498;2023-10-09T08:32:50;102142.88;;;25.27;100.00
81835;BME280;71272;52.166;4.498;2023-10-09T08:35:35;102141.72;;;24.00;100.00
81835;BME280;71272;52.166;4.498;2023-10-09T08:38:11;102149.72;;;23.83;100.00
81835;BME280;71272;52.166;4.498;2023-10-09T08:40:39;102146.50;;;24.47;100.00
81835;BME280;71272;52.166;4.498;2023-10-09T08:43:22;102147.31;;;24.78;100.00
81835;BME280;71272;52.166;4.498;2023-10-09T08:45:55;102148.88;;;24.70;100.00
81835;BME280;71272;52.166;4.498;2023-10-09T08:48:26;102151.09;;;24.44;100.00
81835;BME280;71272;52.166;4.498;2023-10-09T08:50:58;102132.28;;;24.12;100.00
81835;BME280;71272;52.166;4.498;2023-10-09T08:53:26;102145.91;;;24.30;100.00
81835;BME280;71272;52.166;4.498;2023-10-09T08:55:56;102140.22;;;24.61;100.00
81835;BME280;71272;52.166;4.498;2023-10-09T08:58:24;102153.56;;;24.33;100.00
81835;BME280;71272;52.166;4.498;2023-10-09T09:00:58;102154.66;;;23.82;100.00
81835;BME280;71272;52.166;4.498;2023-10-09T09:03:25;102140.53;;;23.40;100.00
81835;BME280;71272;52.166;4.498;2023-10-09T09:06:06;102136.47;;;22.90;100.00
81835;BME280;71272;52.166;4.498;2023-10-09T09:08:33;102153.09;;;23.08;100.00
81835;BME280;71272;52.166;4.498;2023-10-09T09:11:09;102154.38;;;23.55;100.00
81835;BME280;71272;52.166;4.498;2023-10-09T09:13:39;102135.16;;;23.42;100.00
81835;BME280;71272;52.166;4.498;2023-10-09T09:16:13;102164.50;;;23.81;100.00
81835;BME280;71272;52.166;4.498;2023-10-09T09:21:30;102150.75;;;25.05;100.00
81835;BME280;71272;52.166;4.498;2023-10-09T09:24:02;102160.47;;;25.66;100.00
81835;BME280;71272;52.166;4.498;2023-10-09T09:26:38;102158.97;;;25.24;100.00
81835;BME280;71272;52.166;4.498;2023-10-09T09:29:06;102133.38;;;25.08;100.00
81835;BME280;71272;52.166;4.498;2023-10-09T09:31:34;102162.81;;;25.31;100.00
81835;BME280;71272;52.166;4.498;2023-10-09T09:34:06;102148.78;;;24.92;100.00
81835;BME280;71272;52.166;4.498;2023-10-09T09:36:53;102153.72;;;24.51;100.00
81835;BME280;71272;52.166;4.498;2023-10-09T09:39:21;102160.09;;;24.33;100.00
81835;BME280;71272;52.166;4.498;2023-10-09T09:41:54;102155.44;;;23.83;100.00
81835;BME280;71272;52.166;4.498;2023-10-09T09:44:20;102150.97;;;23.47;100.00
81835;BME280;71272;52.166;4.498;2023-10-09T09:46:48;102149.91;;;23.54;100.00
81835;BME280;71272;52.166;4.498;2023-10-09T09:49:14;102160.47;;;23.79;100.00
81835;BME280;71272;52.166;4.498;2023-10-09T09:51:47;102156.66;;;23.95;100.00
81835;BME280;71272;52.166;4.498;2023-10-09T09:54:15;102148.75;;;23.51;100.00
81835;BME280;71272;52.166;4.498;2023-10-09T09:56:44;102141.91;;;23.83;100.00
81835;BME280;71272;52.166;4.498;2023-10-09T09:59:17;102164.53;;;24.47;100.00
81835;BME280;71272;52.166;4.498;2023-10-09T10:01:48;102160.78;;;25.50;100.00
81835;BME280;71272;52.166;4.498;2023-10-09T10:04:25;102169.25;;;27.69;100.00
81835;BME280;71272;52.166;4.498;2023-10-09T10:06:52;102181.03;;;28.34;98.02
81835;BME280;71272;52.166;4.498;2023-10-09T10:09:40;102173.84;;;28.89;92.98
81835;BME280;71272;52.166;4.498;2023-10-09T10:12:09;102172.19;;;29.73;85.51
81835;BME280;71272;52.166;4.498;2023-10-09T10:14:54;102170.84;;;28.98;90.59
81835;BME280;71272;52.166;4.498;2023-10-09T10:20:32;102163.22;;;28.36;95.10
81835;BME280;71272;52.166;4.498;2023-10-09T10:23:15;102160.22;;;27.76;97.31
81835;BME280;71272;52.166;4.498;2023-10-09T10:25:45;102151.38;;;27.17;100.00
81835;BME280;71272;52.166;4.498;2023-10-09T10:28:25;102158.75;;;27.09;100.00
81835;BME280;71272;52.166;4.498;2023-10-09T10:31:03;102162.00;;;27.74;100.00
81835;BME280;71272;52.166;4.498;2023-10-09T10:36:24;102177.53;;;27.52;100.00
81835;BME280;71272;52.166;4.498;2023-10-09T10:39:09;102172.34;;;27.08;100.00
81835;BME280;71272;52.166;4.498;2023-10-09T10:41:58;102166.22;;;26.21;100.00
81835;BME280;71272;52.166;4.498;2023-10-09T10:44:27;102167.03;;;25.94;100.00
81835;BME280;71272;52.166;4.498;2023-10-09T10:47:11;102168.00;;;26.00;100.00
81835;BME280;71272;52.166;4.498;2023-10-09T10:49:53;102168.59;;;27.26;100.00
81835;BME280;71272;52.166;4.498;2023-10-09T10:52:36;102168.16;;;26.85;100.00
81835;BME280;71272;52.166;4.498;2023-10-09T10:55:16;102172.94;;;26.09;100.00
81835;BME280;71272;52.166;4.498;2023-10-09T10:57:56;102169.28;;;25.90;100.00
81835;BME280;71272;52.166;4.498;2023-10-09T11:00:27;102171.47;;;25.58;100.00
81835;BME280;71272;52.166;4.498;2023-10-09T11:03:17;102174.19;;;25.80;100.00
81835;BME280;71272;52.166;4.498;2023-10-09T11:05:45;102177.41;;;25.91;100.00
81835;BME280;71272;52.166;4.498;2023-10-09T11:08:16;102177.25;;;25.67;100.00
81835;BME280;71272;52.166;4.498;2023-10-09T11:10:50;102169.16;;;25.16;100.00
81835;BME280;71272;52.166;4.498;2023-10-09T11:13:25;102157.41;;;24.92;100.00
81835;BME280;71272;52.166;4.498;2023-10-09T11:16:17;102164.63;;;25.83;100.00
81835;BME280;71272;52.166;4.498;2023-10-09T11:19:01;102168.22;;;26.67;100.00
81835;BME280;71272;52.166;4.498;2023-10-09T11:21:39;102165.13;;;26.00;100.00
81835;BME280;71272;52.166;4.498;2023-10-09T11:24:08;102167.31;;;25.50;100.00
81835;BME280;71272;52.166;4.498;2023-10-09T11:26:52;102178.19;;;25.06;100.00
81835;BME280;71272;52.166;4.498;2023-10-09T11:29:22;102176.94;;;24.75;100.00
81835;BME280;71272;52.166;4.498;2023-10-09T11:34:32;102176.31;;;24.27;100.00
81835;BME280;71272;52.166;4.498;2023-10-09T11:37:20;102162.31;;;24.29;100.00
81835;BME280;71272;52.166;4.498;2023-10-09T11:39:58;102167.69;;;23.70;100.00
81835;BME280;71272;52.166;4.498;2023-10-09T11:42:24;102165.63;;;23.49;100.00
81835;BME280;71272;52.166;4.498;2023-10-09T11:45:21;102165.47;;;23.53;100.00
81835;BME280;71272;52.166;4.498;2023-10-09T11:47:53;102166.25;;;23.66;100.00
81835;BME280;71272;52.166;4.498;2023-10-09T11:50:48;102172.09;;;23.97;100.00
81835;BME280;71272;52.166;4.498;2023-10-09T11:53:18;102159.69;;;23.78;100.00
81835;BME280;71272;52.166;4.498;2023-10-09T11:55:50;102144.00;;;23.70;100.00
81835;BME280;71272;52.166;4.498;2023-10-09T11:58:18;102149.31;;;23.59;100.00
81835;BME280;71272;52.166;4.498;2023-10-09T12:00:59;102146.25;;;23.53;100.00
81835;BME280;71272;52.166;4.498;2023-10-09T12:03:29;102158.44;;;23.32;100.00
81835;BME280;71272;52.166;4.498;2023-10-09T12:05:56;102156.06;;;23.04;100.00
81835;BME280;71272;52.166;4.498;2023-10-09T12:08:25;102151.44;;;22.94;100.00
81835;BME280;71272;52.166;4.498;2023-10-09T12:10:55;102167.16;;;23.02;100.00
81835;BME280;71272;52.166;4.498;2023-10-09T12:13:24;102166.56;;;23.20;100.00
81835;BME280;71272;52.166;4.498;2023-10-09T12:15:51;102165.47;;;23.53;100.00
81835;BME280;71272;52.166;4.498;2023-10-09T12:18:18;102167.69;;;23.70;100.00
81835;BME280;71272;52.166;4.498;2023-10-09T12:20:44;102169.22;;;23.62;100.00
81835;BME280;71272;52.166;4.498;2023-10-09T12:23:20;102167.22;;;23.37;100.00
81835;BME280;71272;52.166;4.498;2023-10-09T12:25:49;102159.00;;;22.88;100.00
81835;BME280;71272;52.166;4.498;2023-10-09T12:28:15;102159.72;;;23.05;100.00
81835;BME280;71272;52.166;4.498;2023-10-09T12:30:45;102157.16;;;22.94;100.00
81835;BME280;71272;52.166;4.498;2023-10-09T12:33:16;102169.69;;;23.00;100.00
81835;BME280;71272;52.166;4.498;2023-10-09T12:35:42;102149.63;;;23.13;100.00
81835;BME280;71272;52.166;4.498;2023-10-09T12:38:10;102145.88;;;23.51;100.00
81835;BME280;71272;52.166;4.498;2023-10-09T12:40:38;102152.38;;;23.64;100.00
81835;BME280;71272;52.166;4.498;2023-10-09T12:43:06;102146.25;;;23.40;100.00
81835;BME280;71272;52.166;4.498;2023-10-09T12:45:40;102154.47;;;23.03;100.00
81835;BME280;71272;52.166;4.498;2023-10-09T12:48:06;102168.38;;;22.89;100.00
81835;BME280;71272;52.166;4.498;2023-10-09T12:50:35;102151.78;;;22.58;100.00
81835;BME280;71272;52.166;4.498;2023-10-09T12:53:07;102155.09;;;22.44;100.00
81835;BME280;71272;52.166;4.498;2023-10-09T12:55:40;102148.22;;;22.41;100.00
81835;BME280;71272;52.166;4.498;2023-10-09T12:58:07;102144.19;;;22.26;100.00
81835;BME280;71272;52.166;4.498;2023-10-09T13:00:37;102156.00;;;22.41;100.00
81835;BME280;71272;52.166;4.498;2023-10-09T13:03:06;102150.38;;;22.24;100.00
81835;BME280;71272;52.166;4.498;2023-10-09T13:05:53;102154.19;;;22.17;100.00
81835;BME280;71272;52.166;4.498;2023-10-09T13:08:28;102158.19;;;22.07;100.00
81835;BME280;71272;52.166;4.498;2023-10-09T13:11:04;102159.97;;;22.01;100.00
81835;BME280;71272;52.166;4.498;2023-10-09T13:13:37;102165.34;;;21.99;100.00
81835;BME280;71272;52.166;4.498;2023-10-09T13:18:41;102162.81;;;22.01;100.00
81835;BME280;71272;52.166;4.498;2023-10-09T13:21:22;102162.25;;;22.23;100.00
81835;BME280;71272;52.166;4.498;2023-10-09T13:23:49;102160.56;;;22.38;100.00
81835;BME280;71272;52.166;4.498;2023-10-09T13:26:20;102161.97;;;22.46;100.00
81835;BME280;71272;52.166;4.498;2023-10-09T13:28:54;102160.34;;;22.45;100.00
81835;BME280;71272;52.166;4.498;2023-10-09T13:31:21;102143.53;;;22.05;100.00
81835;BME280;71272;52.166;4.498;2023-10-09T13:33:52;102141.28;;;22.80;100.00
81835;BME280;71272;52.166;4.498;2023-10-09T13:36:22;102153.44;;;22.97;100.00
81835;BME280;71272;52.166;4.498;2023-10-09T13:38:58;102147.47;;;23.30;100.00
81835;BME280;71272;52.166;4.498;2023-10-09T13:41:44;102133.72;;;23.25;100.00
81835;BME280;71272;52.166;4.498;2023-10-09T13:44:09;102149.41;;;23.20;100.00
81835;BME280;71272;52.166;4.498;2023-10-09T13:46:34;102136.38;;;23.07;100.00
81835;BME280;71272;52.166;4.498;2023-10-09T13:49:07;102143.69;;;23.08;100.00
81835;BME280;71272;52.166;4.498;2023-10-09T13:51:40;102149.75;;;22.84;100.00
81835;BME280;71272;52.166;4.498;2023-10-09T13:54:13;102152.94;;;22.86;100.00
81835;BME280;71272;52.166;4.498;2023-10-09T13:56:47;102155.81;;;22.60;100.00